createdAt,value
2019-04-29T11:38:43.460Z,13.00
2019-04-29T11:41:19.558Z,13.20
2019-04-29T11:43:46.593Z,13.20
2019-04-29T11:46:16.124Z,13.20
2019-04-29T11:48:45.826Z,13.40
2019-04-29T11:51:24.905Z,13.40
2019-04-29T11:53:54.845Z,13.40
2019-04-29T11:56:24.579Z,13.50
2019-04-29T11:59:21.763Z,13.50
2019-04-29T12:02:09.624Z,13.50
2019-04-29T12:04:43.402Z,13.50
2019-04-29T12:07:13.554Z,13.60
2019-04-29T12:09:43.184Z,13.60
2019-04-29T12:12:14.557Z,13.60
2019-04-29T12:15:13.749Z,13.70
2019-04-29T12:17:50.480Z,13.90
2019-04-29T12:20:31.308Z,14.10
2019-04-29T12:25:30.156Z,14.20
2019-04-29T12:28:02.041Z,14.20
2019-04-29T12:30:36.411Z,14.20
2019-04-29T12:33:12.244Z,14.30
2019-04-29T12:35:58.696Z,14.40
2019-04-29T12:38:52.971Z,14.40
2019-04-29T21:39:55.691Z,11.70
2019-04-29T21:42:35.290Z,11.60
2019-04-29T21:45:08.361Z,11.60
2019-04-29T21:47:42.701Z,11.50
2019-04-29T21:50:06.756Z,11.50
2019-04-29T21:52:36.728Z,11.40
2019-04-29T21:55:06.782Z,11.40
2019-04-29T21:57:36.427Z,11.40
2019-04-29T22:00:09.645Z,11.30
2019-04-29T22:02:41.410Z,11.30
2019-04-29T22:05:14.832Z,11.30
2019-04-29T22:07:47.267Z,11.30
2019-04-29T22:10:19.916Z,11.30
2019-04-29T22:12:50.941Z,11.20
2019-04-29T22:15:29.741Z,11.20
2019-04-29T22:17:56.415Z,11.20
2019-04-29T22:20:21.661Z,11.10
2019-04-29T22:22:51.333Z,11.10
2019-04-29T22:25:22.271Z,11.00
2019-04-29T22:27:51.920Z,11.00
2019-04-29T22:30:21.824Z,10.90
2019-04-29T22:32:55.199Z,10.90
2019-04-29T22:35:22.867Z,10.80
2019-04-29T22:37:52.482Z,10.80
2019-04-29T22:40:22.138Z,10.80
2019-04-29T22:43:16.771Z,10.80
2019-04-29T22:45:46.548Z,10.80
2019-04-29T22:48:19.605Z,10.80
2019-04-29T22:50:47.666Z,10.70
2019-04-29T22:53:17.276Z,10.70
2019-04-29T22:55:46.995Z,10.70
2019-04-29T22:58:17.576Z,10.70
2019-04-29T23:00:47.192Z,10.60
2019-04-29T23:03:16.867Z,10.60
2019-04-29T23:05:46.520Z,10.60
2019-04-29T23:08:16.172Z,10.60
2019-04-29T23:10:45.768Z,10.60
2019-04-29T23:13:15.442Z,10.50
2019-04-29T23:15:45.543Z,10.60
2019-04-29T23:18:24.664Z,10.60
2019-04-29T23:21:12.340Z,10.60
2019-04-29T23:23:46.277Z,10.60
2019-04-29T23:26:16.869Z,10.60
2019-04-29T23:28:46.723Z,10.60
2019-04-29T23:31:17.663Z,10.50
2019-04-29T23:33:47.278Z,10.50
2019-04-29T23:36:16.912Z,10.50
2019-04-29T23:38:46.527Z,10.50
2019-04-29T23:41:17.109Z,10.60
2019-04-29T23:43:46.751Z,10.40
